createdAt,value
2019-02-18T00:00:02.653Z,4.63
2019-02-18T00:02:31.256Z,5.80
2019-02-18T00:04:59.872Z,5.27
2019-02-18T00:07:28.446Z,5.10
2019-02-18T00:09:57.232Z,4.93
2019-02-18T00:12:26.033Z,5.20
2019-02-18T00:14:55.059Z,4.33
2019-02-18T00:17:23.970Z,5.30
2019-02-18T00:19:52.840Z,4.60
2019-02-18T00:22:21.851Z,4.87
2019-02-18T00:24:50.629Z,4.47
2019-02-18T00:27:19.426Z,4.70
2019-02-18T00:29:48.019Z,5.00
2019-02-18T00:32:16.597Z,4.53
2019-02-18T00:34:45.187Z,5.40
2019-02-18T00:37:13.784Z,4.63
2019-02-18T00:39:42.372Z,4.97
2019-02-18T00:42:10.937Z,4.97
2019-02-18T00:44:39.564Z,5.37
2019-02-18T00:47:08.386Z,5.37
2019-02-18T00:49:37.201Z,4.40
2019-02-18T00:52:05.773Z,5.37
2019-02-18T00:54:34.613Z,4.50
2019-02-18T00:57:03.182Z,4.90
2019-02-18T00:59:31.773Z,5.20
2019-02-18T01:02:00.593Z,4.70
2019-02-18T01:04:29.194Z,5.27
2019-02-18T01:06:58.416Z,4.60
2019-02-18T01:09:26.981Z,4.40
2019-02-18T01:11:55.553Z,4.90
2019-02-18T01:14:24.188Z,4.37
2019-02-18T01:16:52.782Z,5.05
2019-02-18T01:19:21.537Z,4.45
2019-02-18T01:21:50.360Z,4.67
2019-02-18T01:24:18.962Z,4.57
2019-02-18T01:26:47.542Z,5.07
2019-02-18T01:29:16.360Z,4.67
2019-02-18T01:31:44.935Z,4.67
2019-02-18T01:34:13.822Z,4.50
2019-02-18T01:36:42.370Z,3.93
2019-02-18T01:39:10.966Z,4.20
2019-02-18T01:41:39.539Z,4.00
2019-02-18T01:44:08.136Z,4.37
2019-02-18T01:46:36.707Z,3.93
2019-02-18T01:49:05.645Z,4.10
2019-02-18T01:51:34.224Z,4.00
2019-02-18T01:54:02.822Z,4.20
2019-02-18T01:56:31.391Z,4.00
2019-02-18T01:59:00.220Z,4.40
2019-02-18T02:01:28.796Z,4.63
2019-02-18T02:03:57.426Z,4.70
2019-02-18T02:06:25.992Z,4.20
2019-02-18T02:08:54.562Z,4.20
2019-02-18T02:11:23.146Z,4.87
2019-02-18T02:13:52.000Z,4.58
2019-02-18T02:16:20.825Z,4.28
2019-02-18T02:18:49.417Z,4.40
2019-02-18T02:21:17.997Z,4.00
2019-02-18T02:23:46.616Z,4.30
2019-02-18T02:26:15.176Z,4.80
2019-02-18T02:28:43.766Z,4.45
2019-02-18T02:31:12.795Z,3.90
2019-02-18T02:33:41.390Z,4.20
2019-02-18T02:36:10.446Z,3.77
2019-02-18T02:38:39.030Z,3.58
2019-02-18T02:41:07.612Z,3.87
2019-02-18T02:43:36.199Z,4.00
2019-02-18T02:46:04.797Z,3.50
2019-02-18T02:48:33.364Z,4.20
2019-02-18T02:51:01.967Z,4.10
2019-02-18T02:53:30.534Z,3.80
2019-02-18T02:55:59.352Z,4.00
2019-02-18T02:58:27.943Z,3.65
2019-02-18T03:00:56.518Z,4.22
2019-02-18T03:03:25.113Z,4.30
2019-02-18T03:05:53.709Z,4.30
2019-02-18T03:08:22.295Z,4.28
2019-02-18T03:10:50.857Z,4.60
2019-02-18T03:13:19.464Z,4.50
2019-02-18T03:15:48.344Z,4.45
2019-02-18T03:18:16.995Z,4.20
2019-02-18T03:20:45.651Z,4.03
2019-02-18T03:23:14.473Z,3.65
2019-02-18T03:25:43.992Z,4.67
2019-02-18T03:28:33.325Z,4.25
2019-02-18T03:31:11.490Z,4.28
2019-02-18T03:33:49.215Z,3.80
2019-02-18T03:36:17.816Z,3.83
2019-02-18T03:38:46.666Z,3.90
2019-02-18T03:41:15.513Z,4.35
2019-02-18T03:43:44.203Z,4.30
2019-02-18T03:46:12.839Z,4.80
2019-02-18T03:48:41.400Z,4.30
2019-02-18T03:51:10.002Z,4.10
2019-02-18T03:53:38.566Z,4.25
2019-02-18T03:56:07.143Z,3.77
2019-02-18T03:58:35.715Z,3.72
2019-02-18T04:01:04.406Z,4.42
2019-02-18T04:03:32.966Z,4.70
2019-02-18T04:06:01.571Z,4.15
2019-02-18T04:08:30.152Z,4.60
2019-02-18T04:10:58.743Z,3.67
2019-02-18T04:13:27.329Z,4.50
2019-02-18T04:15:56.169Z,4.20
2019-02-18T04:18:25.058Z,4.30
2019-02-18T04:20:53.631Z,4.13
2019-02-18T04:23:22.210Z,4.20
2019-02-18T04:25:51.034Z,4.10
2019-02-18T04:28:19.602Z,4.30
2019-02-18T04:30:48.188Z,3.90
2019-02-18T04:33:16.784Z,4.50
2019-02-18T04:35:45.394Z,3.90
2019-02-18T04:38:14.231Z,3.80
2019-02-18T04:40:42.898Z,4.67
2019-02-18T04:43:11.483Z,4.20
2019-02-18T04:45:40.069Z,3.87
2019-02-18T04:48:08.635Z,3.85
2019-02-18T04:50:37.467Z,3.80
2019-02-18T04:53:06.310Z,3.90
2019-02-18T04:55:34.869Z,3.92
2019-02-18T04:58:06.027Z,3.50
2019-02-18T05:00:33.740Z,3.63
2019-02-18T05:03:02.331Z,3.20
2019-02-18T05:05:31.389Z,3.70
2019-02-18T05:07:59.986Z,4.07
2019-02-18T05:10:28.578Z,4.07
2019-02-18T05:12:57.158Z,3.77
2019-02-18T05:15:25.803Z,3.97
2019-02-18T05:17:54.533Z,3.73
2019-02-18T05:20:23.110Z,4.23
2019-02-18T05:22:51.686Z,4.03
2019-02-18T05:25:20.496Z,3.70
2019-02-18T05:27:49.641Z,3.83
2019-02-18T05:30:18.246Z,3.30
2019-02-18T05:32:48.581Z,3.57
2019-02-18T05:35:17.223Z,3.80
2019-02-18T05:37:45.897Z,4.10
2019-02-18T05:40:14.524Z,3.50
2019-02-18T05:42:43.163Z,3.17
2019-02-18T05:45:11.955Z,3.80
2019-02-18T05:47:40.540Z,3.63
2019-02-18T05:50:09.481Z,3.60
2019-02-18T05:52:38.319Z,4.20
2019-02-18T05:55:07.245Z,4.20
2019-02-18T05:57:36.107Z,3.62
2019-02-18T06:00:06.019Z,3.65
2019-02-18T06:02:34.943Z,3.43
2019-02-18T06:05:03.585Z,3.50
2019-02-18T06:07:32.306Z,4.00
2019-02-18T06:10:01.295Z,3.30
2019-02-18T06:12:30.014Z,4.27
2019-02-18T06:14:58.854Z,4.42
2019-02-18T06:17:27.662Z,4.33
2019-02-18T06:19:56.540Z,5.03
2019-02-18T06:22:25.291Z,3.93
2019-02-18T06:24:54.148Z,4.75
2019-02-18T06:27:23.284Z,4.05
2019-02-18T06:29:51.970Z,3.90
2019-02-18T06:32:20.790Z,4.00
2019-02-18T06:34:49.774Z,4.25
2019-02-18T06:37:18.362Z,4.40
2019-02-18T06:39:46.937Z,5.10
2019-02-18T06:42:15.513Z,5.10
2019-02-18T06:44:58.849Z,4.83
2019-02-18T06:47:28.957Z,4.47
2019-02-18T06:49:57.552Z,4.60
2019-02-18T06:52:26.232Z,5.45
2019-02-18T06:54:54.836Z,4.78
2019-02-18T06:57:35.025Z,5.70
2019-02-18T07:00:23.297Z,5.17
2019-02-18T07:03:06.917Z,5.53
2019-02-18T07:05:41.837Z,5.72
2019-02-18T07:08:22.807Z,5.67
2019-02-18T07:10:56.807Z,6.58
2019-02-18T07:13:25.419Z,5.10
2019-02-18T07:15:54.137Z,4.83
2019-02-18T07:18:22.856Z,4.25
2019-02-18T07:20:51.768Z,5.10
2019-02-18T07:23:20.358Z,5.00
2019-02-18T07:25:49.237Z,4.78
2019-02-18T07:28:18.090Z,5.72
2019-02-18T07:30:47.063Z,6.30
2019-02-18T07:33:15.673Z,5.40
2019-02-18T07:35:44.280Z,4.92
2019-02-18T07:38:12.883Z,6.10
2019-02-18T07:40:41.703Z,5.22
2019-02-18T07:43:10.462Z,6.28
2019-02-18T07:45:39.087Z,5.95
2019-02-18T07:48:07.886Z,5.87
2019-02-18T07:50:37.177Z,6.08
2019-02-18T07:53:06.224Z,5.80
2019-02-18T07:55:35.374Z,6.40
2019-02-18T07:58:03.946Z,6.07
2019-02-18T08:00:32.562Z,6.73
2019-02-18T08:03:01.373Z,6.50
2019-02-18T08:05:30.035Z,6.37
2019-02-18T08:07:58.632Z,5.07
2019-02-18T08:10:27.472Z,5.20
2019-02-18T08:12:56.088Z,5.43
2019-02-18T08:15:24.682Z,5.30
2019-02-18T08:17:53.277Z,5.73
2019-02-18T08:20:21.846Z,5.57
2019-02-18T08:22:50.419Z,5.50
2019-02-18T08:25:19.012Z,5.00
2019-02-18T08:27:47.604Z,5.33
2019-02-18T08:30:16.288Z,5.13
2019-02-18T08:32:44.857Z,5.47
2019-02-18T08:35:13.446Z,5.60
2019-02-18T08:37:42.048Z,5.70
2019-02-18T08:40:10.771Z,5.60
2019-02-18T08:42:39.369Z,4.90
2019-02-18T08:45:09.661Z,6.00
2019-02-18T08:47:38.523Z,5.23
2019-02-18T08:50:08.894Z,5.60
2019-02-18T08:52:37.554Z,5.47
2019-02-18T08:55:07.828Z,4.70
2019-02-18T08:57:36.404Z,6.10
2019-02-18T09:00:05.942Z,5.57
2019-02-18T09:02:34.528Z,5.53
2019-02-18T09:05:03.127Z,5.73
2019-02-18T09:07:31.951Z,5.50
2019-02-18T09:10:00.563Z,5.23
2019-02-18T09:12:29.177Z,5.60
2019-02-18T09:14:57.778Z,6.20
2019-02-18T09:17:26.407Z,4.53
2019-02-18T09:19:55.004Z,5.50
2019-02-18T09:22:35.971Z,5.13
2019-02-18T09:25:14.574Z,6.47
2019-02-18T09:27:43.167Z,6.50
2019-02-18T09:30:11.885Z,5.83
2019-02-18T09:32:40.722Z,5.03
2019-02-18T09:35:09.357Z,5.20
2019-02-18T09:37:37.965Z,5.53
2019-02-18T09:40:06.983Z,5.50
2019-02-18T09:42:35.607Z,5.53
2019-02-18T09:45:04.312Z,4.53
2019-02-18T09:47:33.141Z,4.70
2019-02-18T09:50:01.740Z,5.00
2019-02-18T09:52:30.341Z,4.33
2019-02-18T09:54:58.974Z,4.70
2019-02-18T09:57:27.569Z,4.40
2019-02-18T09:59:56.254Z,4.40
2019-02-18T10:02:25.077Z,23.60
2019-02-18T10:04:53.653Z,4.43
2019-02-18T10:07:22.323Z,3.73
2019-02-18T10:09:50.915Z,4.73
2019-02-18T10:12:19.493Z,4.60
2019-02-18T10:14:48.321Z,4.90
2019-02-18T10:17:16.924Z,4.93
2019-02-18T10:19:45.512Z,4.80
2019-02-18T10:22:14.119Z,6.90
2019-02-18T10:27:13.063Z,4.33
2019-02-18T10:29:41.613Z,4.20
2019-02-18T10:32:10.261Z,5.97
2019-02-18T10:34:38.924Z,5.00
2019-02-18T10:37:07.525Z,4.70
2019-02-18T10:39:36.365Z,9.27
2019-02-18T10:42:05.286Z,5.30
2019-02-18T10:44:33.890Z,4.90
2019-02-18T10:47:02.460Z,4.87
2019-02-18T10:49:31.373Z,6.00
2019-02-18T10:51:59.967Z,4.33
2019-02-18T10:54:28.552Z,4.93
2019-02-18T10:56:57.142Z,4.87
2019-02-18T10:59:25.804Z,4.87
2019-02-18T11:01:55.004Z,5.17
2019-02-18T11:04:23.846Z,5.30
2019-02-18T11:06:52.459Z,4.70
2019-02-18T11:09:21.529Z,10.10
2019-02-18T11:11:50.114Z,5.23
2019-02-18T11:14:18.694Z,5.70
2019-02-18T11:16:47.293Z,5.03
2019-02-18T11:19:17.565Z,5.03
2019-02-18T11:21:46.388Z,5.23
2019-02-18T11:24:15.267Z,4.60
2019-02-18T11:26:43.943Z,4.47
2019-02-18T11:29:12.748Z,5.43
2019-02-18T11:31:41.365Z,4.50
2019-02-18T11:34:09.951Z,4.97
2019-02-18T11:36:38.540Z,5.00
2019-02-18T11:39:11.758Z,5.20
2019-02-18T11:41:40.357Z,4.47
2019-02-18T11:44:08.971Z,4.30
2019-02-18T11:46:37.586Z,5.40
2019-02-18T11:49:06.299Z,5.30
2019-02-18T11:51:34.877Z,5.20
2019-02-18T11:54:03.711Z,5.00
2019-02-18T11:56:32.911Z,5.43
2019-02-18T11:59:02.397Z,4.27
2019-02-18T12:01:31.085Z,4.47
2019-02-18T12:03:59.758Z,4.83
2019-02-18T12:06:28.446Z,3.47
2019-02-18T12:08:57.157Z,5.40
2019-02-18T12:11:25.762Z,4.80
2019-02-18T12:13:54.495Z,5.60
2019-02-18T12:16:23.087Z,3.87
2019-02-18T12:18:51.928Z,4.70
2019-02-18T12:21:20.765Z,4.57
2019-02-18T12:23:49.364Z,4.87
2019-02-18T12:26:18.010Z,4.43
2019-02-18T12:28:46.629Z,4.87
2019-02-18T12:31:15.228Z,1.90
2019-02-18T12:33:43.870Z,5.03
2019-02-18T12:36:15.472Z,4.70
2019-02-18T12:38:44.068Z,5.37
2019-02-18T12:41:13.537Z,5.43
2019-02-18T12:43:42.726Z,9.20
2019-02-18T12:46:15.780Z,8.97
2019-02-18T12:48:42.498Z,9.33
2019-02-18T12:51:11.109Z,10.73
2019-02-18T12:53:39.715Z,10.80
2019-02-18T12:56:08.718Z,11.27
2019-02-18T12:58:37.387Z,10.93
2019-02-18T13:01:07.059Z,4.87
2019-02-18T13:03:35.634Z,3.87
2019-02-18T13:06:04.506Z,11.10
2019-02-18T13:08:33.119Z,9.70
2019-02-18T13:11:01.738Z,9.93
2019-02-18T13:13:31.398Z,4.40
2019-02-18T13:16:00.029Z,10.10
2019-02-18T13:18:29.197Z,9.17
2019-02-18T13:20:57.802Z,5.17
2019-02-18T13:23:26.387Z,3.30
2019-02-18T13:25:55.013Z,9.50
2019-02-18T13:28:23.586Z,9.40
2019-02-18T13:30:52.191Z,10.60
2019-02-18T13:33:20.826Z,11.57
2019-02-18T13:35:49.670Z,12.00
2019-02-18T13:38:18.487Z,6.13
2019-02-18T13:40:47.071Z,0.20
2019-02-18T13:43:15.787Z,3.00
2019-02-18T13:45:44.372Z,0.70
2019-02-18T13:48:12.984Z,12.53
2019-02-18T13:50:41.824Z,13.63
2019-02-18T13:53:10.427Z,12.63
2019-02-18T13:55:39.271Z,13.43
2019-02-18T13:58:07.846Z,13.10
2019-02-18T14:00:36.553Z,12.70
2019-02-18T14:03:05.121Z,13.20
2019-02-18T14:05:34.043Z,14.10
2019-02-18T14:08:02.843Z,13.80
2019-02-18T14:10:31.450Z,13.70
2019-02-18T14:13:00.276Z,14.40
2019-02-18T14:15:28.943Z,15.73
2019-02-18T14:17:59.528Z,13.17
2019-02-18T14:20:28.123Z,13.10
2019-02-18T14:22:57.268Z,13.70
2019-02-18T14:25:25.910Z,6.63
2019-02-18T14:27:54.487Z,0.90
2019-02-18T14:30:23.071Z,6.80
2019-02-18T14:32:51.769Z,12.13
2019-02-18T14:35:20.373Z,13.90
2019-02-18T14:37:49.923Z,13.93
2019-02-18T14:40:20.152Z,14.20
2019-02-18T14:42:48.855Z,14.17
2019-02-18T14:45:17.585Z,14.50
2019-02-18T14:47:46.293Z,14.80
2019-02-18T14:50:17.449Z,13.00
2019-02-18T14:52:46.636Z,13.90
2019-02-18T14:55:15.342Z,14.30
2019-02-18T14:57:44.044Z,14.47
2019-02-18T15:00:17.898Z,15.07
2019-02-18T15:02:46.763Z,13.60
2019-02-18T15:05:15.653Z,3.30
2019-02-18T15:07:44.616Z,9.83
2019-02-18T15:10:14.685Z,15.23
2019-02-18T15:12:43.495Z,15.80
2019-02-18T15:15:12.128Z,14.90
2019-02-18T15:17:40.787Z,14.93
2019-02-18T15:20:11.519Z,14.23
2019-02-18T15:22:40.146Z,15.77
2019-02-18T15:25:08.936Z,13.90
2019-02-18T15:27:37.987Z,13.80
2019-02-18T15:30:08.139Z,13.47
2019-02-18T15:32:36.724Z,13.97
2019-02-18T15:35:05.599Z,12.50
2019-02-18T15:37:34.580Z,13.70
2019-02-18T15:40:03.896Z,13.90
2019-02-18T15:42:32.500Z,16.37
2019-02-18T15:45:01.167Z,16.17
2019-02-18T15:47:30.018Z,15.57
2019-02-18T15:49:59.073Z,16.40
2019-02-18T15:52:27.957Z,17.07
2019-02-18T15:54:56.830Z,15.70
2019-02-18T15:57:25.490Z,15.83
2019-02-18T15:59:54.437Z,15.63
2019-02-18T16:02:23.594Z,14.87
2019-02-18T16:04:52.172Z,16.00
2019-02-18T16:07:21.146Z,14.37
2019-02-18T16:09:49.730Z,13.63
2019-02-18T16:12:18.353Z,14.50
2019-02-18T16:14:47.413Z,13.43
2019-02-18T16:17:16.010Z,13.67
2019-02-18T16:19:44.919Z,14.67
2019-02-18T16:22:13.638Z,15.23
2019-02-18T16:24:42.711Z,13.77
2019-02-18T16:27:11.583Z,13.83
2019-02-18T16:29:40.189Z,14.13
2019-02-18T16:32:08.907Z,11.87
2019-02-18T16:34:38.116Z,12.97
2019-02-18T16:37:07.081Z,12.60
2019-02-18T16:39:35.913Z,12.30
2019-02-18T16:42:05.129Z,12.93
2019-02-18T16:44:33.847Z,14.33
2019-02-18T16:47:02.450Z,13.17
2019-02-18T16:49:31.378Z,12.90
2019-02-18T16:51:59.937Z,13.20
2019-02-18T16:54:28.674Z,12.00
2019-02-18T16:56:57.541Z,13.80
2019-02-18T16:59:30.761Z,13.87
2019-02-18T17:01:59.474Z,13.37
2019-02-18T17:04:28.026Z,14.07
2019-02-18T17:06:56.878Z,13.40
2019-02-18T17:09:25.489Z,13.77
2019-02-18T17:11:54.307Z,13.13
2019-02-18T17:14:22.894Z,12.90
2019-02-18T17:16:51.736Z,12.50
2019-02-18T17:19:20.447Z,12.60
2019-02-18T17:21:49.260Z,11.90
2019-02-18T17:24:18.138Z,13.20
2019-02-18T17:26:46.746Z,12.30
2019-02-18T17:29:15.377Z,12.10
2019-02-18T17:31:44.003Z,12.07
2019-02-18T17:34:12.741Z,11.53
2019-02-18T17:36:41.315Z,11.97
2019-02-18T17:39:10.174Z,11.37
2019-02-18T17:41:38.785Z,11.57
2019-02-18T17:44:07.376Z,12.17
2019-02-18T17:46:35.965Z,12.00
2019-02-18T17:49:05.047Z,10.90
2019-02-18T17:51:36.772Z,10.23
2019-02-18T17:54:05.397Z,12.00
2019-02-18T17:56:34.268Z,11.87
2019-02-18T17:59:02.888Z,11.70
2019-02-18T18:01:31.499Z,12.53
2019-02-18T18:04:00.126Z,13.57
2019-02-18T18:06:28.735Z,11.80
2019-02-18T18:08:57.503Z,12.17
2019-02-18T18:11:26.371Z,12.17
2019-02-18T18:13:55.004Z,11.33
2019-02-18T18:16:23.846Z,12.13
2019-02-18T18:18:52.771Z,11.77
2019-02-18T18:21:21.595Z,11.17
2019-02-18T18:23:50.411Z,11.50
2019-02-18T18:26:19.007Z,12.23
2019-02-18T18:28:47.626Z,11.60
2019-02-18T18:31:16.222Z,11.70
2019-02-18T18:33:45.043Z,11.90
2019-02-18T18:36:13.719Z,11.27
2019-02-18T18:38:42.336Z,12.37
2019-02-18T18:41:11.000Z,11.37
2019-02-18T18:43:39.599Z,11.80
2019-02-18T18:46:08.275Z,10.93
2019-02-18T18:48:36.983Z,12.90
2019-02-18T18:51:05.585Z,12.27
2019-02-18T18:53:34.465Z,10.40
2019-02-18T18:56:03.268Z,11.60
2019-02-18T18:58:32.052Z,10.67
2019-02-18T19:01:00.904Z,10.27
2019-02-18T19:03:29.510Z,10.00
2019-02-18T19:05:58.288Z,9.13
2019-02-18T19:08:26.927Z,9.60
2019-02-18T19:10:55.899Z,9.33
2019-02-18T19:13:24.740Z,9.83
2019-02-18T19:15:53.374Z,9.20
2019-02-18T19:18:22.279Z,8.80
2019-02-18T19:20:50.918Z,9.47
2019-02-18T19:23:19.543Z,9.90
2019-02-18T19:25:48.418Z,9.93
2019-02-18T19:28:17.043Z,8.63
2019-02-18T19:30:45.887Z,9.87
2019-02-18T19:33:14.963Z,9.60
2019-02-18T19:35:43.545Z,9.40
2019-02-18T19:38:12.148Z,8.77
2019-02-18T19:40:40.730Z,9.03
2019-02-18T19:43:09.662Z,8.70
2019-02-18T19:45:38.424Z,8.67
2019-02-18T19:48:07.128Z,8.30
2019-02-18T19:50:35.988Z,8.07
2019-02-18T19:53:04.904Z,7.50
2019-02-18T19:55:33.458Z,7.00
2019-02-18T19:58:02.295Z,7.17
2019-02-18T20:00:31.118Z,6.47
2019-02-18T20:02:59.735Z,5.53
2019-02-18T20:05:28.393Z,5.50
2019-02-18T20:07:57.590Z,5.50
2019-02-18T20:10:26.633Z,5.73
2019-02-18T20:12:55.716Z,5.50
2019-02-18T20:15:24.320Z,5.40
2019-02-18T20:17:52.913Z,5.37
2019-02-18T20:20:21.766Z,5.43
2019-02-18T20:22:50.372Z,5.47
2019-02-18T20:25:18.978Z,5.90
2019-02-18T20:27:48.091Z,5.60
2019-02-18T20:30:16.768Z,5.30
2019-02-18T20:32:45.522Z,5.70
2019-02-18T20:35:14.520Z,5.20
2019-02-18T20:37:45.051Z,4.60
2019-02-18T20:40:13.730Z,5.30
2019-02-18T20:42:43.340Z,5.33
2019-02-18T20:45:12.263Z,5.10
2019-02-18T20:47:41.554Z,5.17
2019-02-18T20:50:10.544Z,5.23
2019-02-18T20:52:39.544Z,5.17
2019-02-18T20:55:09.693Z,5.37
2019-02-18T20:57:38.555Z,5.30
2019-02-18T21:02:38.432Z,5.10
2019-02-18T21:05:07.086Z,5.40
2019-02-18T21:07:36.004Z,6.07
2019-02-18T21:10:04.969Z,5.13
2019-02-18T21:12:33.691Z,5.67
2019-02-18T21:15:02.405Z,5.93
2019-02-18T21:17:31.045Z,5.60
2019-02-18T21:20:02.767Z,5.73
2019-02-18T21:22:31.385Z,6.07
2019-02-18T21:24:59.971Z,5.70
2019-02-18T23:59:18.058Z,5.67
